createdAt,value
2022-10-10T00:01:26.308Z,55.24
2022-10-10T00:04:29.558Z,54.99
2022-10-10T00:07:32.793Z,55.24
2022-10-10T00:10:37.809Z,55.15
2022-10-10T00:13:41.876Z,56.22
2022-10-10T00:16:45.025Z,56.23
2022-10-10T00:19:48.264Z,56.55
2022-10-10T00:22:51.654Z,56.11
2022-10-10T00:25:56.557Z,55.66
2022-10-10T00:28:59.804Z,56.08
2022-10-10T00:32:03.023Z,56.36
2022-10-10T00:35:07.273Z,56.03
2022-10-10T00:38:10.685Z,56.29
2022-10-10T00:41:15.306Z,55.54
2022-10-10T00:44:18.724Z,55.28
2022-10-10T00:47:21.898Z,57.27
2022-10-10T00:50:26.243Z,56.59
2022-10-10T00:53:34.089Z,55.77
2022-10-10T00:56:43.325Z,55.04
2022-10-10T00:59:47.841Z,57.09
2022-10-10T01:02:51.541Z,57.13
2022-10-10T01:05:55.127Z,56.06
2022-10-10T01:08:58.910Z,56.48
2022-10-10T01:12:18.955Z,56.00
2022-10-10T01:15:26.678Z,55.80
2022-10-10T01:18:39.499Z,56.88
2022-10-10T01:21:52.512Z,56.49
2022-10-10T01:25:07.982Z,56.11
2022-10-10T01:28:23.493Z,56.15
2022-10-10T01:31:27.983Z,57.95
2022-10-10T01:34:38.151Z,58.29
2022-10-10T01:37:49.851Z,57.23
2022-10-10T01:40:57.191Z,56.54
2022-10-10T01:44:01.891Z,58.37
2022-10-10T01:47:05.219Z,57.54
2022-10-10T01:50:13.381Z,57.99
2022-10-10T01:53:24.513Z,57.94
2022-10-10T01:56:35.360Z,58.57
2022-10-10T01:59:50.068Z,58.26
2022-10-10T02:02:59.654Z,58.87
2022-10-10T02:06:08.964Z,59.06
2022-10-10T02:09:18.188Z,59.41
2022-10-10T02:12:24.643Z,58.19
2022-10-10T02:15:35.669Z,58.06
2022-10-10T02:18:40.456Z,59.08
2022-10-10T02:21:44.145Z,57.85
2022-10-10T02:24:47.392Z,58.01
2022-10-10T02:28:00.830Z,59.33
2022-10-10T02:31:08.640Z,58.44
2022-10-10T02:34:14.784Z,58.32
2022-10-10T02:37:19.468Z,59.44
2022-10-10T02:40:26.653Z,59.50
2022-10-10T02:43:29.967Z,60.06
2022-10-10T02:46:34.864Z,60.22
2022-10-10T02:49:38.291Z,59.39
2022-10-10T02:52:41.605Z,58.95
2022-10-10T02:55:45.101Z,60.44
2022-10-10T02:58:48.314Z,59.26
2022-10-10T03:01:52.871Z,59.96
2022-10-10T03:04:56.052Z,59.60
2022-10-10T03:07:59.221Z,59.82
2022-10-10T03:11:03.222Z,60.07
2022-10-10T03:14:06.456Z,59.71
2022-10-10T03:17:11.126Z,59.15
2022-10-10T03:20:14.381Z,59.54
2022-10-10T03:23:17.584Z,59.41
2022-10-10T03:26:20.844Z,60.30
2022-10-10T03:29:24.118Z,59.69
2022-10-10T03:32:28.795Z,59.30
2022-10-10T03:35:32.058Z,59.99
2022-10-10T03:38:35.342Z,59.61
2022-10-10T03:41:38.482Z,59.27
2022-10-10T03:44:41.681Z,58.88
2022-10-10T03:47:46.278Z,59.10
2022-10-10T03:50:49.466Z,58.64
2022-10-10T03:53:52.670Z,58.55
2022-10-10T03:56:55.882Z,58.52
2022-10-10T03:59:59.028Z,58.96
2022-10-10T04:03:06.375Z,59.41
2022-10-10T04:06:09.565Z,59.30
2022-10-10T04:09:12.783Z,59.57
2022-10-10T04:12:15.998Z,60.38
2022-10-10T04:15:19.229Z,59.91
2022-10-10T04:18:24.439Z,61.08
2022-10-10T04:21:27.667Z,61.19
2022-10-10T04:24:31.021Z,61.46
2022-10-10T04:27:34.282Z,59.78
2022-10-10T04:30:37.502Z,60.85
2022-10-10T04:33:42.132Z,60.88
2022-10-10T04:36:45.327Z,60.80
2022-10-10T04:39:48.551Z,61.40
2022-10-10T04:42:52.045Z,60.48
2022-10-10T04:45:57.685Z,59.63
2022-10-10T04:49:02.276Z,60.73
2022-10-10T04:52:05.490Z,60.02
2022-10-10T04:55:09.202Z,60.33
2022-10-10T04:58:12.579Z,59.39
2022-10-10T05:01:16.026Z,60.90
2022-10-10T05:04:20.782Z,60.15
2022-10-10T05:07:24.170Z,60.63
2022-10-10T05:10:27.783Z,60.69
2022-10-10T05:13:30.993Z,61.96
2022-10-10T05:16:34.584Z,61.98
2022-10-10T05:19:39.199Z,61.57
2022-10-10T05:22:42.411Z,61.80
2022-10-10T05:25:46.177Z,61.03
2022-10-10T05:28:49.372Z,61.18
2022-10-10T05:31:52.597Z,60.77
2022-10-10T05:34:57.177Z,60.76
2022-10-10T05:38:00.491Z,59.35
2022-10-10T05:41:04.363Z,60.17
2022-10-10T05:44:07.630Z,57.92
2022-10-10T05:47:10.985Z,58.35
2022-10-10T05:50:29.124Z,58.22
2022-10-10T05:53:32.387Z,56.64
2022-10-10T05:56:35.564Z,55.81
2022-10-10T05:59:38.751Z,56.51
2022-10-10T06:02:42.094Z,55.70
2022-10-10T06:05:49.238Z,54.98
2022-10-10T06:08:52.539Z,54.00
2022-10-10T06:11:55.731Z,54.34
2022-10-10T06:14:58.922Z,54.19
2022-10-10T06:18:02.236Z,53.42
2022-10-10T06:21:09.189Z,52.91
2022-10-10T06:24:12.497Z,51.60
2022-10-10T06:27:15.736Z,50.50
2022-10-10T06:30:18.974Z,51.23
2022-10-10T06:33:22.256Z,50.65
2022-10-10T06:36:26.839Z,50.40
2022-10-10T06:39:30.157Z,50.06
2022-10-10T06:42:34.385Z,49.11
2022-10-10T06:45:37.704Z,48.95
2022-10-10T06:48:41.036Z,48.53
2022-10-10T06:51:45.746Z,46.66
2022-10-10T06:54:48.960Z,47.33
2022-10-10T06:57:52.221Z,46.89
2022-10-10T07:00:57.005Z,45.69
2022-10-10T07:04:00.225Z,45.53
2022-10-10T07:07:04.902Z,45.15
2022-10-10T07:10:09.639Z,45.29
2022-10-10T07:13:12.936Z,45.46
2022-10-10T07:16:16.135Z,44.89
2022-10-10T07:19:21.634Z,43.88
2022-10-10T07:22:26.814Z,43.99
2022-10-10T07:25:30.489Z,44.20
2022-10-10T07:28:34.505Z,43.49
2022-10-10T07:31:37.892Z,43.55
2022-10-10T07:34:47.015Z,43.50
2022-10-10T07:37:55.495Z,42.92
2022-10-10T07:40:58.716Z,44.35
2022-10-10T07:44:01.957Z,44.37
2022-10-10T07:47:05.240Z,43.43
2022-10-10T07:50:09.224Z,43.36
2022-10-10T07:53:13.986Z,43.38
2022-10-10T07:56:17.171Z,43.11
2022-10-10T07:59:20.355Z,43.91
2022-10-10T08:02:23.559Z,43.94
2022-10-10T08:05:26.767Z,42.94
2022-10-10T08:08:34.144Z,43.51
2022-10-10T08:11:37.694Z,44.14
2022-10-10T08:14:41.115Z,43.77
2022-10-10T08:17:44.308Z,43.57
2022-10-10T08:20:47.570Z,44.98
2022-10-10T08:23:52.274Z,43.77
2022-10-10T08:26:55.427Z,43.09
2022-10-10T08:29:58.654Z,42.95
2022-10-10T08:33:02.668Z,42.19
2022-10-10T08:36:08.192Z,42.33
2022-10-10T08:39:12.814Z,42.57
2022-10-10T08:42:18.875Z,42.64
2022-10-10T08:45:26.054Z,43.07
2022-10-10T08:48:31.263Z,43.51
2022-10-10T08:51:35.504Z,43.40
2022-10-10T08:54:42.431Z,42.61
2022-10-10T08:57:51.680Z,43.42
2022-10-10T09:01:03.684Z,43.05
2022-10-10T09:04:08.896Z,43.76
2022-10-10T09:07:25.871Z,43.43
2022-10-10T09:10:38.903Z,44.25
2022-10-10T09:13:51.811Z,44.70
2022-10-10T09:17:01.602Z,44.35
2022-10-10T09:20:17.061Z,44.24
2022-10-10T09:23:24.803Z,43.09
2022-10-10T09:26:32.401Z,41.97
2022-10-10T09:29:44.128Z,41.34
2022-10-10T09:32:52.754Z,41.09
2022-10-10T09:35:59.328Z,40.31
2022-10-10T09:39:06.538Z,39.95
2022-10-10T09:42:15.036Z,39.87
2022-10-10T09:45:21.939Z,39.89
2022-10-10T09:48:29.240Z,39.18
2022-10-10T09:51:33.442Z,38.90
2022-10-10T09:54:36.726Z,38.92
2022-10-10T09:57:43.936Z,39.53
2022-10-10T10:00:47.373Z,40.34
2022-10-10T10:04:27.177Z,40.12
2022-10-10T10:07:33.459Z,38.72
2022-10-10T10:10:37.238Z,39.31
2022-10-10T10:13:42.721Z,39.62
2022-10-10T10:16:45.978Z,40.24
2022-10-10T10:19:49.730Z,40.41
2022-10-10T10:26:02.899Z,40.95
2022-10-10T10:29:31.449Z,41.58
2022-10-10T10:32:46.883Z,41.26
2022-10-10T10:36:00.212Z,40.09
2022-10-10T10:39:19.499Z,39.86
2022-10-10T10:42:37.050Z,40.55
2022-10-10T10:45:53.727Z,40.65
2022-10-10T10:49:03.168Z,40.23
2022-10-10T10:52:29.211Z,39.74
2022-10-10T10:55:40.705Z,39.96
2022-10-10T10:59:35.665Z,40.28
2022-10-10T11:02:57.383Z,41.08
2022-10-10T11:06:23.568Z,41.15
2022-10-10T11:09:49.199Z,41.68
2022-10-10T11:13:04.625Z,41.62
2022-10-10T11:16:36.366Z,41.17
2022-10-10T11:19:44.385Z,41.97
2022-10-10T11:22:53.054Z,41.29
2022-10-10T11:26:01.589Z,41.89
2022-10-10T11:29:10.999Z,41.84
2022-10-10T11:35:36.494Z,42.06
2022-10-10T11:38:45.136Z,42.43
2022-10-10T11:41:53.380Z,42.13
2022-10-10T11:45:01.092Z,41.94
2022-10-10T11:48:15.800Z,42.19
2022-10-10T11:51:27.643Z,42.40
2022-10-10T11:54:41.846Z,41.95
2022-10-10T11:57:51.280Z,41.39
2022-10-10T12:00:58.556Z,42.20
2022-10-10T12:04:01.842Z,42.41
2022-10-10T12:07:12.844Z,42.12
2022-10-10T12:10:23.485Z,41.67
2022-10-10T12:13:32.576Z,41.84
2022-10-10T12:16:37.958Z,41.93
2022-10-10T12:19:41.232Z,41.65
2022-10-10T12:23:09.863Z,40.79
2022-10-10T12:26:17.816Z,40.63
2022-10-10T12:29:42.217Z,40.81
2022-10-10T12:32:46.594Z,41.42
2022-10-10T12:35:49.825Z,41.50
2022-10-10T12:39:22.677Z,41.89
2022-10-10T12:42:32.433Z,41.51
2022-10-10T12:46:16.093Z,41.36
2022-10-10T12:49:22.415Z,41.04
2022-10-10T12:52:28.415Z,41.71
2022-10-10T12:55:33.891Z,41.05
2022-10-10T12:58:41.510Z,41.17
2022-10-10T13:01:51.031Z,41.52
2022-10-10T13:04:57.277Z,42.17
2022-10-10T13:08:02.744Z,42.38
2022-10-10T13:11:08.974Z,42.27
2022-10-10T13:14:15.044Z,42.30
2022-10-10T13:17:29.672Z,42.25
2022-10-10T13:20:37.524Z,42.51
2022-10-10T13:27:08.143Z,42.25
2022-10-10T13:30:20.246Z,42.37
2022-10-10T13:33:29.885Z,42.06
2022-10-10T13:36:33.697Z,42.15
2022-10-10T13:39:39.336Z,42.21
2022-10-10T13:42:42.882Z,42.49
2022-10-10T13:45:49.619Z,42.44
2022-10-10T13:48:52.918Z,42.78
2022-10-10T13:52:05.204Z,42.54
2022-10-10T13:55:25.166Z,42.52
2022-10-10T13:58:30.160Z,42.25
2022-10-10T14:01:37.991Z,42.77
2022-10-10T14:04:46.525Z,41.95
2022-10-10T14:07:51.395Z,41.94
2022-10-10T14:11:00.385Z,41.86
2022-10-10T14:14:09.230Z,42.13
2022-10-10T14:17:15.016Z,42.07
2022-10-10T14:20:18.229Z,42.02
2022-10-10T14:23:21.509Z,41.85
2022-10-10T14:26:24.735Z,41.89
2022-10-10T14:29:27.948Z,42.12
2022-10-10T14:32:33.006Z,42.46
2022-10-10T14:35:36.536Z,42.82
2022-10-10T14:38:39.890Z,42.69
2022-10-10T14:41:43.702Z,42.36
2022-10-10T14:44:47.244Z,42.63
2022-10-10T14:47:52.282Z,43.04
2022-10-10T14:50:55.568Z,42.71
2022-10-10T14:54:10.057Z,42.46
2022-10-10T14:57:15.770Z,41.98
2022-10-10T15:00:21.516Z,41.97
2022-10-10T15:03:26.322Z,42.48
2022-10-10T15:06:29.609Z,42.58
2022-10-10T15:09:41.571Z,42.62
2022-10-10T15:12:48.269Z,43.26
2022-10-10T15:15:51.607Z,43.47
2022-10-10T15:18:56.281Z,43.19
2022-10-10T15:21:59.426Z,43.24
2022-10-10T15:25:02.670Z,43.83
2022-10-10T15:28:06.216Z,44.02
2022-10-10T15:31:09.515Z,44.39
2022-10-10T15:34:14.836Z,44.58
2022-10-10T15:37:18.124Z,44.74
2022-10-10T15:40:23.303Z,44.82
2022-10-10T15:43:27.173Z,45.10
2022-10-10T15:46:31.134Z,44.81
2022-10-10T15:49:35.748Z,45.34
2022-10-10T15:52:39.778Z,45.43
2022-10-10T15:55:43.856Z,45.36
2022-10-10T16:01:50.084Z,45.81
2022-10-10T16:04:54.711Z,45.81
2022-10-10T16:07:57.868Z,46.33
2022-10-10T16:11:06.047Z,45.79
2022-10-10T16:14:09.261Z,45.52
2022-10-10T16:17:12.541Z,46.64
2022-10-10T16:20:17.232Z,46.60
2022-10-10T16:23:20.519Z,47.69
2022-10-10T16:26:26.753Z,47.70
2022-10-10T16:29:30.031Z,47.63
2022-10-10T16:32:38.011Z,48.40
2022-10-10T16:35:45.640Z,48.65
2022-10-10T16:38:49.643Z,48.43
2022-10-10T16:41:52.871Z,48.60
2022-10-10T16:44:56.059Z,48.58
2022-10-10T16:47:59.220Z,48.56
2022-10-10T16:51:05.584Z,48.94
2022-10-10T16:54:08.951Z,48.57
2022-10-10T16:57:14.497Z,48.80
2022-10-10T17:00:18.049Z,49.92
2022-10-10T17:03:21.681Z,49.43
2022-10-10T17:06:28.117Z,50.17
2022-10-10T17:09:34.566Z,49.97
2022-10-10T17:12:37.803Z,49.91
2022-10-10T17:15:43.949Z,49.90
2022-10-10T17:18:47.204Z,49.71
2022-10-10T17:21:51.848Z,49.75
2022-10-10T17:24:55.132Z,50.50
2022-10-10T17:27:58.282Z,50.44
2022-10-10T17:31:01.892Z,50.56
2022-10-10T17:34:05.403Z,50.22
2022-10-10T17:37:10.012Z,50.70
2022-10-10T17:40:13.658Z,50.88
2022-10-10T17:43:16.875Z,51.05
2022-10-10T17:46:37.511Z,50.46
2022-10-10T17:49:46.344Z,50.43
2022-10-10T17:52:50.977Z,51.16
2022-10-10T17:55:54.368Z,52.38
2022-10-10T17:58:59.622Z,51.83
2022-10-10T18:02:02.836Z,52.03
2022-10-10T18:05:06.721Z,51.62
2022-10-10T18:08:11.378Z,51.14
2022-10-10T18:11:16.899Z,51.48
2022-10-10T18:14:22.394Z,51.42
2022-10-10T18:17:25.618Z,51.26
2022-10-10T18:20:28.860Z,51.61
2022-10-10T18:23:33.903Z,51.50
2022-10-10T18:26:37.247Z,51.22
2022-10-10T18:29:40.638Z,51.03
2022-10-10T18:32:43.867Z,52.48
2022-10-10T18:35:47.103Z,51.87
2022-10-10T18:38:51.782Z,52.25
2022-10-10T18:41:54.986Z,52.49
2022-10-10T18:44:58.274Z,52.58
2022-10-10T18:48:01.534Z,52.37
2022-10-10T18:51:06.741Z,52.37
2022-10-10T18:54:14.813Z,52.50
2022-10-10T18:57:18.281Z,52.03
2022-10-10T19:00:25.139Z,53.67
2022-10-10T19:03:28.821Z,52.83
2022-10-10T19:06:32.108Z,52.77
2022-10-10T19:09:36.713Z,52.99
2022-10-10T19:12:43.927Z,52.94
2022-10-10T19:15:51.695Z,52.90
2022-10-10T19:18:58.169Z,53.66
2022-10-10T19:22:01.895Z,53.77
2022-10-10T19:25:07.225Z,53.18
2022-10-10T19:28:10.580Z,53.86
2022-10-10T19:31:15.503Z,53.65
2022-10-10T19:34:18.765Z,53.99
2022-10-10T19:37:21.969Z,54.98
2022-10-10T19:40:26.598Z,54.73
2022-10-10T19:43:30.168Z,55.59
2022-10-10T19:46:37.110Z,55.17
2022-10-10T19:49:41.061Z,56.24
2022-10-10T19:52:44.347Z,56.74
2022-10-10T19:55:58.533Z,57.72
2022-10-10T19:59:04.495Z,56.44
2022-10-10T20:02:08.057Z,55.71
2022-10-10T20:05:11.831Z,55.59
2022-10-10T20:08:15.574Z,55.72
2022-10-10T20:11:20.780Z,56.49
2022-10-10T20:14:24.002Z,56.07
2022-10-10T20:17:27.889Z,55.92
2022-10-10T20:20:31.106Z,56.19
2022-10-10T20:23:34.306Z,56.38
2022-10-10T20:26:38.946Z,56.39
2022-10-10T20:29:42.164Z,55.85
2022-10-10T20:32:45.356Z,56.06
2022-10-10T20:35:52.401Z,55.77
2022-10-10T20:39:00.703Z,56.61
2022-10-10T20:42:05.299Z,57.37
2022-10-10T20:45:11.454Z,57.43
2022-10-10T20:48:14.806Z,57.63
2022-10-10T20:51:18.025Z,58.27
2022-10-10T20:54:23.572Z,57.79
2022-10-10T20:57:28.090Z,57.48
2022-10-10T21:00:31.360Z,59.42
2022-10-10T21:03:34.511Z,59.54
2022-10-10T21:06:38.528Z,59.30
2022-10-10T21:09:41.769Z,58.84
2022-10-10T21:12:46.415Z,58.94
2022-10-10T21:15:49.650Z,60.01
2022-10-10T21:18:57.884Z,60.09
2022-10-10T21:22:01.577Z,60.09
2022-10-10T21:25:05.231Z,59.67
2022-10-10T21:28:10.188Z,60.26
2022-10-10T21:31:15.734Z,60.96
2022-10-10T21:34:19.163Z,59.93
2022-10-10T21:37:22.388Z,59.63
2022-10-10T21:40:25.547Z,60.28
2022-10-10T21:43:30.202Z,61.23
2022-10-10T21:46:37.249Z,60.14
2022-10-10T21:49:40.482Z,59.81
2022-10-10T21:52:43.786Z,60.56
2022-10-10T21:55:47.044Z,61.01
2022-10-10T21:58:51.674Z,60.24
2022-10-10T22:01:54.909Z,60.19
2022-10-10T22:04:58.907Z,61.24
2022-10-10T22:08:17.423Z,61.49
2022-10-10T22:11:23.508Z,60.99
2022-10-10T22:14:28.185Z,61.17
2022-10-10T22:17:31.397Z,63.84
2022-10-10T22:20:34.580Z,63.42
2022-10-10T22:23:37.995Z,63.41
2022-10-10T22:26:41.755Z,64.22
2022-10-10T22:29:46.350Z,63.92
2022-10-10T22:32:49.565Z,64.18
2022-10-10T22:35:52.797Z,63.98
2022-10-10T22:38:56.074Z,64.43
2022-10-10T22:41:59.275Z,64.15
2022-10-10T22:45:03.921Z,66.13
2022-10-10T22:48:07.644Z,64.85
2022-10-10T22:51:15.189Z,65.68
2022-10-10T22:54:18.643Z,65.07
2022-10-10T22:57:21.866Z,65.54
2022-10-10T23:00:26.623Z,65.80
2022-10-10T23:03:29.893Z,65.70
2022-10-10T23:06:33.042Z,66.78
2022-10-10T23:09:36.242Z,66.82
2022-10-10T23:12:39.442Z,67.73
2022-10-10T23:15:44.052Z,67.69
2022-10-10T23:18:47.326Z,67.43
2022-10-10T23:21:50.430Z,67.25
2022-10-10T23:24:53.732Z,66.64
2022-10-10T23:27:57.004Z,67.36
2022-10-10T23:31:05.102Z,66.66
2022-10-10T23:34:08.351Z,67.47
2022-10-10T23:37:11.592Z,67.80
2022-10-10T23:40:14.846Z,68.41
2022-10-10T23:43:18.151Z,68.67
2022-10-10T23:46:22.888Z,66.93
2022-10-10T23:49:26.134Z,67.28
2022-10-10T23:52:29.351Z,68.67
2022-10-10T23:55:33.989Z,67.92
2022-10-10T23:58:37.657Z,67.85
